Terminal Aerodrome Forecast
Issued by NWS Blacksburg, VA

Home | Current Version | Previous Version | Text Only | Print | Product List | Glossary On
Versions: 1 2 3 4 5 6 7 8 9 10 11 12
000
FTUS41 KRNK 250525
TAFDAN
TAF
KDAN 250525Z 2506/2606 00000KT P6SM SKC
      TEMPO 2510/2512 4SM BR
     FM251500 22008KT P6SM SCT060
     FM260000 22003KT P6SM SCT050 SCT120=

USA.gov is the U.S. government's official web portal to all federal, state and local government web resources and services.